sensor_id;sensor_type;location;lat;lon;timestamp;P1;durP1;ratioP1;P2;durP2;ratioP2
27428;SDS011;14881;48.092;11.574;2023-11-19T00:00:48;4.53;;;3.40;;
27428;SDS011;14881;48.092;11.574;2023-11-19T00:03:17;3.40;;;3.10;;
27428;SDS011;14881;48.092;11.574;2023-11-19T00:05:44;4.25;;;3.30;;
27428;SDS011;14881;48.092;11.574;2023-11-19T00:08:11;3.50;;;3.20;;
27428;SDS011;14881;48.092;11.574;2023-11-19T00:10:37;3.60;;;3.30;;
27428;SDS011;14881;48.092;11.574;2023-11-19T00:13:03;3.67;;;3.10;;
27428;SDS011;14881;48.092;11.574;2023-11-19T00:15:30;4.03;;;3.65;;
27428;SDS011;14881;48.092;11.574;2023-11-19T00:17:56;3.63;;;3.33;;
27428;SDS011;14881;48.092;11.574;2023-11-19T00:20:27;3.63;;;3.33;;
27428;SDS011;14881;48.092;11.574;2023-11-19T00:22:55;4.00;;;3.60;;
27428;SDS011;14881;48.092;11.574;2023-11-19T00:25:21;3.90;;;3.50;;
27428;SDS011;14881;48.092;11.574;2023-11-19T00:27:48;3.83;;;3.53;;
27428;SDS011;14881;48.092;11.574;2023-11-19T00:30:16;4.88;;;3.67;;
27428;SDS011;14881;48.092;11.574;2023-11-19T00:32:42;4.25;;;3.40;;
27428;SDS011;14881;48.092;11.574;2023-11-19T00:35:09;4.30;;;3.70;;
27428;SDS011;14881;48.092;11.574;2023-11-19T00:37:36;5.53;;;3.28;;
27428;SDS011;14881;48.092;11.574;2023-11-19T00:40:03;5.55;;;3.58;;
27428;SDS011;14881;48.092;11.574;2023-11-19T00:42:31;3.70;;;3.10;;
27428;SDS011;14881;48.092;11.574;2023-11-19T00:44:57;3.95;;;3.15;;
27428;SDS011;14881;48.092;11.574;2023-11-19T00:47:24;3.33;;;3.03;;
27428;SDS011;14881;48.092;11.574;2023-11-19T00:49:50;4.38;;;3.45;;
27428;SDS011;14881;48.092;11.574;2023-11-19T00:52:17;3.92;;;3.53;;
27428;SDS011;14881;48.092;11.574;2023-11-19T00:54:44;4.22;;;3.72;;
27428;SDS011;14881;48.092;11.574;2023-11-19T00:57:11;3.80;;;3.50;;
27428;SDS011;14881;48.092;11.574;2023-11-19T00:59:37;4.72;;;3.22;;
27428;SDS011;14881;48.092;11.574;2023-11-19T01:02:07;3.80;;;3.38;;
27428;SDS011;14881;48.092;11.574;2023-11-19T01:04:33;3.83;;;3.45;;
27428;SDS011;14881;48.092;11.574;2023-11-19T01:07:01;3.20;;;2.85;;
27428;SDS011;14881;48.092;11.574;2023-11-19T01:09:29;3.40;;;3.10;;
27428;SDS011;14881;48.092;11.574;2023-11-19T01:11:57;4.72;;;3.42;;
27428;SDS011;14881;48.092;11.574;2023-11-19T01:14:24;3.75;;;3.33;;
27428;SDS011;14881;48.092;11.574;2023-11-19T01:16:51;3.38;;;3.10;;
27428;SDS011;14881;48.092;11.574;2023-11-19T01:19:19;3.22;;;2.92;;
27428;SDS011;14881;48.092;11.574;2023-11-19T01:21:46;4.10;;;2.90;;
27428;SDS011;14881;48.092;11.574;2023-11-19T01:24:12;3.67;;;3.13;;
27428;SDS011;14881;48.092;11.574;2023-11-19T01:26:40;4.18;;;2.70;;
27428;SDS011;14881;48.092;11.574;2023-11-19T01:29:10;3.65;;;2.92;;
27428;SDS011;14881;48.092;11.574;2023-11-19T01:31:39;4.43;;;2.45;;
27428;SDS011;14881;48.092;11.574;2023-11-19T01:34:06;4.65;;;2.67;;
27428;SDS011;14881;48.092;11.574;2023-11-19T01:36:32;2.70;;;2.50;;
27428;SDS011;14881;48.092;11.574;2023-11-19T01:38:59;2.55;;;2.22;;
27428;SDS011;14881;48.092;11.574;2023-11-19T01:41:25;4.13;;;2.60;;
27428;SDS011;14881;48.092;11.574;2023-11-19T01:43:51;6.60;;;2.88;;
27428;SDS011;14881;48.092;11.574;2023-11-19T01:46:18;3.08;;;2.67;;
27428;SDS011;14881;48.092;11.574;2023-11-19T01:48:45;3.17;;;2.50;;
27428;SDS011;14881;48.092;11.574;2023-11-19T01:51:12;4.97;;;2.65;;
27428;SDS011;14881;48.092;11.574;2023-11-19T01:53:48;3.00;;;2.40;;
27428;SDS011;14881;48.092;11.574;2023-11-19T01:56:15;3.85;;;2.50;;
27428;SDS011;14881;48.092;11.574;2023-11-19T01:58:42;2.65;;;2.10;;
27428;SDS011;14881;48.092;11.574;2023-11-19T02:01:10;2.80;;;2.50;;
27428;SDS011;14881;48.092;11.574;2023-11-19T02:03:38;3.35;;;2.70;;
27428;SDS011;14881;48.092;11.574;2023-11-19T02:06:06;3.40;;;2.63;;
27428;SDS011;14881;48.092;11.574;2023-11-19T02:08:35;2.40;;;2.20;;
27428;SDS011;14881;48.092;11.574;2023-11-19T02:11:02;3.17;;;2.05;;
27428;SDS011;14881;48.092;11.574;2023-11-19T02:13:29;4.00;;;2.30;;
27428;SDS011;14881;48.092;11.574;2023-11-19T02:15:55;2.45;;;2.25;;
27428;SDS011;14881;48.092;11.574;2023-11-19T02:18:23;3.22;;;2.17;;
27428;SDS011;14881;48.092;11.574;2023-11-19T02:20:53;2.75;;;2.42;;
27428;SDS011;14881;48.092;11.574;2023-11-19T02:23:20;2.88;;;2.58;;
27428;SDS011;14881;48.092;11.574;2023-11-19T02:25:55;3.35;;;2.80;;
27428;SDS011;14881;48.092;11.574;2023-11-19T02:28:37;2.80;;;2.50;;
27428;SDS011;14881;48.092;11.574;2023-11-19T02:31:04;3.10;;;2.75;;
27428;SDS011;14881;48.092;11.574;2023-11-19T02:33:32;3.58;;;2.40;;
27428;SDS011;14881;48.092;11.574;2023-11-19T02:35:58;2.88;;;2.65;;
27428;SDS011;14881;48.092;11.574;2023-11-19T02:38:24;2.50;;;2.30;;
27428;SDS011;14881;48.092;11.574;2023-11-19T02:40:51;3.70;;;2.45;;
27428;SDS011;14881;48.092;11.574;2023-11-19T02:43:17;4.45;;;2.33;;
27428;SDS011;14881;48.092;11.574;2023-11-19T02:45:45;2.75;;;2.20;;
27428;SDS011;14881;48.092;11.574;2023-11-19T02:48:12;2.78;;;1.90;;
27428;SDS011;14881;48.092;11.574;2023-11-19T02:50:40;2.33;;;2.13;;
27428;SDS011;14881;48.092;11.574;2023-11-19T02:53:06;3.55;;;2.35;;
27428;SDS011;14881;48.092;11.574;2023-11-19T02:55:33;3.72;;;1.92;;
27428;SDS011;14881;48.092;11.574;2023-11-19T02:58:03;2.72;;;2.13;;
27428;SDS011;14881;48.092;11.574;2023-11-19T03:00:35;2.75;;;1.85;;
27428;SDS011;14881;48.092;11.574;2023-11-19T03:03:03;4.45;;;2.47;;
27428;SDS011;14881;48.092;11.574;2023-11-19T03:05:43;2.33;;;2.03;;
27428;SDS011;14881;48.092;11.574;2023-11-19T03:08:10;3.15;;;2.30;;
27428;SDS011;14881;48.092;11.574;2023-11-19T03:10:48;2.60;;;2.17;;
27428;SDS011;14881;48.092;11.574;2023-11-19T03:13:15;2.20;;;2.00;;
27428;SDS011;14881;48.092;11.574;2023-11-19T03:15:42;4.82;;;1.98;;
27428;SDS011;14881;48.092;11.574;2023-11-19T03:18:09;1.90;;;1.80;;
27428;SDS011;14881;48.092;11.574;2023-11-19T03:20:36;2.25;;;1.95;;
27428;SDS011;14881;48.092;11.574;2023-11-19T03:23:02;1.98;;;1.70;;
27428;SDS011;14881;48.092;11.574;2023-11-19T03:25:29;2.38;;;1.83;;
27428;SDS011;14881;48.092;11.574;2023-11-19T03:27:59;3.08;;;1.90;;
27428;SDS011;14881;48.092;11.574;2023-11-19T03:30:26;2.25;;;1.85;;
27428;SDS011;14881;48.092;11.574;2023-11-19T03:32:57;1.70;;;1.60;;
27428;SDS011;14881;48.092;11.574;2023-11-19T03:35:24;4.13;;;1.50;;
27428;SDS011;14881;48.092;11.574;2023-11-19T03:37:50;1.75;;;1.63;;
27428;SDS011;14881;48.092;11.574;2023-11-19T03:40:17;2.65;;;1.70;;
27428;SDS011;14881;48.092;11.574;2023-11-19T03:42:44;1.73;;;1.63;;
27428;SDS011;14881;48.092;11.574;2023-11-19T03:45:11;2.70;;;1.70;;
27428;SDS011;14881;48.092;11.574;2023-11-19T03:47:37;1.75;;;1.60;;
27428;SDS011;14881;48.092;11.574;2023-11-19T03:50:05;2.35;;;1.65;;
27428;SDS011;14881;48.092;11.574;2023-11-19T03:52:32;2.03;;;1.60;;
27428;SDS011;14881;48.092;11.574;2023-11-19T03:55:09;2.50;;;1.83;;
27428;SDS011;14881;48.092;11.574;2023-11-19T03:57:36;2.92;;;1.90;;
27428;SDS011;14881;48.092;11.574;2023-11-19T04:00:02;4.15;;;1.80;;
27428;SDS011;14881;48.092;11.574;2023-11-19T04:02:34;2.08;;;1.88;;
27428;SDS011;14881;48.092;11.574;2023-11-19T04:05:01;1.95;;;1.52;;
27428;SDS011;14881;48.092;11.574;2023-11-19T04:07:27;1.95;;;1.80;;
27428;SDS011;14881;48.092;11.574;2023-11-19T04:09:54;1.73;;;1.58;;
27428;SDS011;14881;48.092;11.574;2023-11-19T04:12:20;2.22;;;1.58;;
27428;SDS011;14881;48.092;11.574;2023-11-19T04:14:47;1.58;;;1.48;;
27428;SDS011;14881;48.092;11.574;2023-11-19T04:17:25;1.55;;;1.45;;
27428;SDS011;14881;48.092;11.574;2023-11-19T04:19:51;1.75;;;1.50;;
27428;SDS011;14881;48.092;11.574;2023-11-19T04:22:18;1.88;;;1.60;;
27428;SDS011;14881;48.092;11.574;2023-11-19T04:24:44;2.33;;;1.55;;
27428;SDS011;14881;48.092;11.574;2023-11-19T04:27:11;1.77;;;1.60;;
27428;SDS011;14881;48.092;11.574;2023-11-19T04:29:38;2.00;;;1.70;;
27428;SDS011;14881;48.092;11.574;2023-11-19T04:32:05;7.32;;;1.58;;
27428;SDS011;14881;48.092;11.574;2023-11-19T04:34:31;1.77;;;1.63;;
27428;SDS011;14881;48.092;11.574;2023-11-19T04:36:58;3.63;;;1.63;;
27428;SDS011;14881;48.092;11.574;2023-11-19T04:39:38;1.58;;;1.48;;
27428;SDS011;14881;48.092;11.574;2023-11-19T04:42:05;2.15;;;1.33;;
27428;SDS011;14881;48.092;11.574;2023-11-19T04:44:33;1.88;;;1.15;;
27428;SDS011;14881;48.092;11.574;2023-11-19T04:46:59;1.75;;;1.23;;
27428;SDS011;14881;48.092;11.574;2023-11-19T04:49:26;1.63;;;1.00;;
27428;SDS011;14881;48.092;11.574;2023-11-19T04:51:52;2.60;;;1.40;;
27428;SDS011;14881;48.092;11.574;2023-11-19T04:54:19;1.40;;;1.30;;
27428;SDS011;14881;48.092;11.574;2023-11-19T04:56:45;1.75;;;1.23;;
27428;SDS011;14881;48.092;11.574;2023-11-19T04:59:12;1.20;;;1.10;;
27428;SDS011;14881;48.092;11.574;2023-11-19T05:01:39;3.40;;;1.83;;
27428;SDS011;14881;48.092;11.574;2023-11-19T05:04:06;3.33;;;1.20;;
27428;SDS011;14881;48.092;11.574;2023-11-19T05:06:33;1.42;;;1.30;;
27428;SDS011;14881;48.092;11.574;2023-11-19T05:09:00;1.25;;;1.15;;
27428;SDS011;14881;48.092;11.574;2023-11-19T05:11:32;1.45;;;1.35;;
27428;SDS011;14881;48.092;11.574;2023-11-19T05:13:58;2.47;;;1.13;;
27428;SDS011;14881;48.092;11.574;2023-11-19T05:16:24;1.45;;;1.30;;
27428;SDS011;14881;48.092;11.574;2023-11-19T05:18:52;1.70;;;1.20;;
27428;SDS011;14881;48.092;11.574;2023-11-19T05:21:18;4.13;;;1.05;;
27428;SDS011;14881;48.092;11.574;2023-11-19T05:23:45;2.25;;;1.23;;
27428;SDS011;14881;48.092;11.574;2023-11-19T05:26:17;1.08;;;0.90;;
27428;SDS011;14881;48.092;11.574;2023-11-19T05:28:43;1.00;;;0.90;;
27428;SDS011;14881;48.092;11.574;2023-11-19T05:31:10;0.90;;;0.90;;
27428;SDS011;14881;48.092;11.574;2023-11-19T05:33:36;1.20;;;1.15;;
27428;SDS011;14881;48.092;11.574;2023-11-19T05:36:04;1.10;;;1.00;;
27428;SDS011;14881;48.092;11.574;2023-11-19T05:38:31;1.10;;;1.00;;
27428;SDS011;14881;48.092;11.574;2023-11-19T05:40:57;1.65;;;1.30;;
27428;SDS011;14881;48.092;11.574;2023-11-19T05:43:24;1.13;;;1.02;;
27428;SDS011;14881;48.092;11.574;2023-11-19T05:45:50;2.15;;;1.10;;
27428;SDS011;14881;48.092;11.574;2023-11-19T05:48:16;1.10;;;1.00;;
27428;SDS011;14881;48.092;11.574;2023-11-19T05:50:43;1.30;;;1.20;;
27428;SDS011;14881;48.092;11.574;2023-11-19T05:53:10;1.10;;;1.00;;
27428;SDS011;14881;48.092;11.574;2023-11-19T05:55:38;2.85;;;1.02;;
27428;SDS011;14881;48.092;11.574;2023-11-19T05:58:20;1.02;;;1.02;;
27428;SDS011;14881;48.092;11.574;2023-11-19T06:00:52;1.40;;;1.08;;
27428;SDS011;14881;48.092;11.574;2023-11-19T06:03:18;1.30;;;1.05;;
27428;SDS011;14881;48.092;11.574;2023-11-19T06:05:45;1.00;;;0.90;;
27428;SDS011;14881;48.092;11.574;2023-11-19T06:08:12;2.95;;;1.10;;
27428;SDS011;14881;48.092;11.574;2023-11-19T06:10:39;1.02;;;1.02;;
27428;SDS011;14881;48.092;11.574;2023-11-19T06:13:05;0.95;;;0.95;;
27428;SDS011;14881;48.092;11.574;2023-11-19T06:15:32;1.35;;;1.25;;
27428;SDS011;14881;48.092;11.574;2023-11-19T06:17:59;0.98;;;0.90;;
27428;SDS011;14881;48.092;11.574;2023-11-19T06:20:27;1.02;;;0.82;;
27428;SDS011;14881;48.092;11.574;2023-11-19T06:23:07;1.85;;;1.00;;
27428;SDS011;14881;48.092;11.574;2023-11-19T06:25:34;0.80;;;0.80;;
27428;SDS011;14881;48.092;11.574;2023-11-19T06:28:01;0.77;;;0.77;;
27428;SDS011;14881;48.092;11.574;2023-11-19T06:30:28;1.00;;;1.00;;
27428;SDS011;14881;48.092;11.574;2023-11-19T06:32:55;0.82;;;0.82;;
27428;SDS011;14881;48.092;11.574;2023-11-19T06:35:22;1.00;;;0.70;;
27428;SDS011;14881;48.092;11.574;2023-11-19T06:37:48;2.88;;;0.80;;
27428;SDS011;14881;48.092;11.574;2023-11-19T06:40:14;0.60;;;0.60;;
27428;SDS011;14881;48.092;11.574;2023-11-19T06:42:42;1.60;;;0.70;;
27428;SDS011;14881;48.092;11.574;2023-11-19T06:45:09;1.63;;;0.80;;
27428;SDS011;14881;48.092;11.574;2023-11-19T06:47:35;1.10;;;0.80;;
27428;SDS011;14881;48.092;11.574;2023-11-19T06:50:02;0.77;;;0.77;;
27428;SDS011;14881;48.092;11.574;2023-11-19T06:52:31;1.92;;;0.80;;
27428;SDS011;14881;48.092;11.574;2023-11-19T06:54:57;0.70;;;0.70;;
27428;SDS011;14881;48.092;11.574;2023-11-19T06:57:27;1.02;;;0.80;;
27428;SDS011;14881;48.092;11.574;2023-11-19T06:59:55;1.33;;;0.90;;
27428;SDS011;14881;48.092;11.574;2023-11-19T07:02:22;1.95;;;0.77;;
27428;SDS011;14881;48.092;11.574;2023-11-19T07:04:52;0.77;;;0.70;;
27428;SDS011;14881;48.092;11.574;2023-11-19T07:07:18;0.73;;;0.60;;
27428;SDS011;14881;48.092;11.574;2023-11-19T07:09:45;0.60;;;0.60;;
27428;SDS011;14881;48.092;11.574;2023-11-19T07:12:11;0.63;;;0.63;;
27428;SDS011;14881;48.092;11.574;2023-11-19T07:14:39;2.45;;;0.70;;
27428;SDS011;14881;48.092;11.574;2023-11-19T07:17:08;0.80;;;0.80;;
27428;SDS011;14881;48.092;11.574;2023-11-19T07:19:34;0.47;;;0.47;;
27428;SDS011;14881;48.092;11.574;2023-11-19T07:22:02;3.22;;;0.82;;
27428;SDS011;14881;48.092;11.574;2023-11-19T07:24:28;0.65;;;0.60;;
27428;SDS011;14881;48.092;11.574;2023-11-19T07:26:55;0.50;;;0.50;;
27428;SDS011;14881;48.092;11.574;2023-11-19T07:29:21;0.60;;;0.60;;
27428;SDS011;14881;48.092;11.574;2023-11-19T07:31:50;0.70;;;0.70;;
27428;SDS011;14881;48.092;11.574;2023-11-19T07:34:20;0.70;;;0.70;;
27428;SDS011;14881;48.092;11.574;2023-11-19T07:36:47;1.10;;;0.63;;
27428;SDS011;14881;48.092;11.574;2023-11-19T07:39:13;0.65;;;0.50;;
27428;SDS011;14881;48.092;11.574;2023-11-19T07:41:40;0.80;;;0.60;;
27428;SDS011;14881;48.092;11.574;2023-11-19T07:44:06;0.60;;;0.60;;
27428;SDS011;14881;48.092;11.574;2023-11-19T07:46:32;1.02;;;0.70;;
27428;SDS011;14881;48.092;11.574;2023-11-19T07:48:59;1.38;;;0.60;;
27428;SDS011;14881;48.092;11.574;2023-11-19T07:51:26;1.55;;;0.60;;
27428;SDS011;14881;48.092;11.574;2023-11-19T07:53:52;0.80;;;0.80;;
27428;SDS011;14881;48.092;11.574;2023-11-19T07:56:19;0.63;;;0.63;;
27428;SDS011;14881;48.092;11.574;2023-11-19T07:58:45;2.38;;;0.75;;
27428;SDS011;14881;48.092;11.574;2023-11-19T08:01:12;0.68;;;0.57;;
27428;SDS011;14881;48.092;11.574;2023-11-19T08:03:39;2.58;;;0.80;;
27428;SDS011;14881;48.092;11.574;2023-11-19T08:06:05;0.52;;;0.52;;
27428;SDS011;14881;48.092;11.574;2023-11-19T08:08:33;0.47;;;0.47;;
27428;SDS011;14881;48.092;11.574;2023-11-19T08:11:00;0.60;;;0.60;;
27428;SDS011;14881;48.092;11.574;2023-11-19T08:13:26;1.42;;;0.50;;
27428;SDS011;14881;48.092;11.574;2023-11-19T08:15:53;1.52;;;0.68;;
27428;SDS011;14881;48.092;11.574;2023-11-19T08:18:19;0.50;;;0.50;;
27428;SDS011;14881;48.092;11.574;2023-11-19T08:20:45;0.70;;;0.70;;
27428;SDS011;14881;48.092;11.574;2023-11-19T08:23:15;0.60;;;0.60;;
27428;SDS011;14881;48.092;11.574;2023-11-19T08:25:42;0.50;;;0.50;;
27428;SDS011;14881;48.092;11.574;2023-11-19T08:28:09;0.90;;;0.75;;
27428;SDS011;14881;48.092;11.574;2023-11-19T08:30:36;0.57;;;0.57;;
27428;SDS011;14881;48.092;11.574;2023-11-19T08:33:02;1.25;;;0.60;;
27428;SDS011;14881;48.092;11.574;2023-11-19T08:35:29;0.57;;;0.52;;
27428;SDS011;14881;48.092;11.574;2023-11-19T08:37:56;0.77;;;0.60;;
27428;SDS011;14881;48.092;11.574;2023-11-19T08:40:22;0.65;;;0.60;;
27428;SDS011;14881;48.092;11.574;2023-11-19T08:42:50;1.30;;;0.60;;
27428;SDS011;14881;48.092;11.574;2023-11-19T08:45:16;0.50;;;0.50;;
27428;SDS011;14881;48.092;11.574;2023-11-19T08:47:43;0.80;;;0.68;;
27428;SDS011;14881;48.092;11.574;2023-11-19T08:50:10;0.75;;;0.75;;
27428;SDS011;14881;48.092;11.574;2023-11-19T08:52:40;0.50;;;0.50;;
27428;SDS011;14881;48.092;11.574;2023-11-19T08:55:06;0.60;;;0.60;;
27428;SDS011;14881;48.092;11.574;2023-11-19T08:57:35;0.90;;;0.60;;
27428;SDS011;14881;48.092;11.574;2023-11-19T09:00:02;3.08;;;0.60;;
27428;SDS011;14881;48.092;11.574;2023-11-19T09:02:33;0.75;;;0.60;;
27428;SDS011;14881;48.092;11.574;2023-11-19T09:04:59;0.70;;;0.70;;
27428;SDS011;14881;48.092;11.574;2023-11-19T09:07:26;1.38;;;0.80;;
27428;SDS011;14881;48.092;11.574;2023-11-19T09:09:52;0.57;;;0.57;;
27428;SDS011;14881;48.092;11.574;2023-11-19T09:12:18;0.82;;;0.82;;
27428;SDS011;14881;48.092;11.574;2023-11-19T09:14:45;0.98;;;0.80;;
27428;SDS011;14881;48.092;11.574;2023-11-19T09:17:12;0.60;;;0.60;;
27428;SDS011;14881;48.092;11.574;2023-11-19T09:19:38;0.80;;;0.80;;
27428;SDS011;14881;48.092;11.574;2023-11-19T09:22:05;0.55;;;0.52;;
27428;SDS011;14881;48.092;11.574;2023-11-19T09:24:31;0.60;;;0.60;;
27428;SDS011;14881;48.092;11.574;2023-11-19T09:29:58;0.88;;;0.70;;
27428;SDS011;14881;48.092;11.574;2023-11-19T09:32:27;0.80;;;0.80;;
27428;SDS011;14881;48.092;11.574;2023-11-19T09:34:54;1.33;;;0.80;;
27428;SDS011;14881;48.092;11.574;2023-11-19T09:37:20;0.60;;;0.60;;
27428;SDS011;14881;48.092;11.574;2023-11-19T09:39:47;1.05;;;0.80;;
27428;SDS011;14881;48.092;11.574;2023-11-19T09:42:14;0.75;;;0.75;;
27428;SDS011;14881;48.092;11.574;2023-11-19T09:44:41;1.20;;;0.60;;
27428;SDS011;14881;48.092;11.574;2023-11-19T09:47:09;0.60;;;0.60;;
27428;SDS011;14881;48.092;11.574;2023-11-19T09:49:38;0.85;;;0.70;;
27428;SDS011;14881;48.092;11.574;2023-11-19T09:52:05;0.70;;;0.60;;
27428;SDS011;14881;48.092;11.574;2023-11-19T09:54:31;1.20;;;0.60;;
27428;SDS011;14881;48.092;11.574;2023-11-19T09:59:37;1.80;;;1.38;;
27428;SDS011;14881;48.092;11.574;2023-11-19T10:02:04;1.20;;;1.10;;
27428;SDS011;14881;48.092;11.574;2023-11-19T10:04:33;0.80;;;0.80;;
27428;SDS011;14881;48.092;11.574;2023-11-19T10:07:03;0.77;;;0.70;;
27428;SDS011;14881;48.092;11.574;2023-11-19T10:09:29;0.77;;;0.77;;
27428;SDS011;14881;48.092;11.574;2023-11-19T10:11:56;0.60;;;0.60;;
27428;SDS011;14881;48.092;11.574;2023-11-19T10:14:23;0.73;;;0.68;;
27428;SDS011;14881;48.092;11.574;2023-11-19T10:16:50;1.27;;;0.73;;
27428;SDS011;14881;48.092;11.574;2023-11-19T10:19:18;1.75;;;0.80;;
27428;SDS011;14881;48.092;11.574;2023-11-19T10:21:45;0.80;;;0.80;;
27428;SDS011;14881;48.092;11.574;2023-11-19T10:24:13;1.08;;;0.70;;
27428;SDS011;14881;48.092;11.574;2023-11-19T10:26:56;0.93;;;0.82;;
27428;SDS011;14881;48.092;11.574;2023-11-19T10:29:23;0.95;;;0.80;;
27428;SDS011;14881;48.092;11.574;2023-11-19T10:31:55;1.05;;;0.60;;
27428;SDS011;14881;48.092;11.574;2023-11-19T10:34:24;0.50;;;0.50;;
27428;SDS011;14881;48.092;11.574;2023-11-19T10:36:52;2.53;;;0.73;;
27428;SDS011;14881;48.092;11.574;2023-11-19T10:39:19;0.68;;;0.57;;
27428;SDS011;14881;48.092;11.574;2023-11-19T10:41:46;0.52;;;0.52;;
27428;SDS011;14881;48.092;11.574;2023-11-19T10:44:25;1.48;;;0.40;;
27428;SDS011;14881;48.092;11.574;2023-11-19T10:49:25;0.57;;;0.47;;
27428;SDS011;14881;48.092;11.574;2023-11-19T10:51:52;0.90;;;0.80;;
27428;SDS011;14881;48.092;11.574;2023-11-19T10:54:23;0.57;;;0.35;;
27428;SDS011;14881;48.092;11.574;2023-11-19T10:56:52;2.00;;;1.20;;
27428;SDS011;14881;48.092;11.574;2023-11-19T10:59:24;0.82;;;0.73;;
27428;SDS011;14881;48.092;11.574;2023-11-19T11:01:58;0.70;;;0.70;;
27428;SDS011;14881;48.092;11.574;2023-11-19T11:04:29;0.40;;;0.40;;
27428;SDS011;14881;48.092;11.574;2023-11-19T11:06:59;0.40;;;0.40;;
27428;SDS011;14881;48.092;11.574;2023-11-19T11:09:28;0.30;;;0.30;;
27428;SDS011;14881;48.092;11.574;2023-11-19T11:11:56;0.80;;;0.60;;
27428;SDS011;14881;48.092;11.574;2023-11-19T11:14:25;0.47;;;0.47;;
27428;SDS011;14881;48.092;11.574;2023-11-19T11:16:53;0.60;;;0.60;;
27428;SDS011;14881;48.092;11.574;2023-11-19T11:19:19;1.50;;;0.45;;
27428;SDS011;14881;48.092;11.574;2023-11-19T11:21:47;1.58;;;0.50;;
27428;SDS011;14881;48.092;11.574;2023-11-19T11:24:26;0.55;;;0.55;;
27428;SDS011;14881;48.092;11.574;2023-11-19T11:27:24;0.50;;;0.50;;
27428;SDS011;14881;48.092;11.574;2023-11-19T11:30:07;0.45;;;0.45;;
27428;SDS011;14881;48.092;11.574;2023-11-19T11:32:48;0.63;;;0.43;;
27428;SDS011;14881;48.092;11.574;2023-11-19T11:35:25;0.35;;;0.30;;
27428;SDS011;14881;48.092;11.574;2023-11-19T11:38:03;0.30;;;0.30;;
27428;SDS011;14881;48.092;11.574;2023-11-19T11:40:33;0.75;;;0.60;;
27428;SDS011;14881;48.092;11.574;2023-11-19T11:43:00;2.42;;;0.80;;
27428;SDS011;14881;48.092;11.574;2023-11-19T11:45:35;0.52;;;0.30;;
27428;SDS011;14881;48.092;11.574;2023-11-19T11:48:10;0.40;;;0.38;;
27428;SDS011;14881;48.092;11.574;2023-11-19T11:53:20;0.30;;;0.30;;
27428;SDS011;14881;48.092;11.574;2023-11-19T11:55:54;0.43;;;0.22;;
27428;SDS011;14881;48.092;11.574;2023-11-19T11:58:25;0.52;;;0.30;;
27428;SDS011;14881;48.092;11.574;2023-11-19T12:00:52;0.65;;;0.35;;
27428;SDS011;14881;48.092;11.574;2023-11-19T12:03:20;1.17;;;0.38;;
27428;SDS011;14881;48.092;11.574;2023-11-19T12:05:47;0.30;;;0.20;;
27428;SDS011;14881;48.092;11.574;2023-11-19T12:08:15;0.90;;;0.40;;
27428;SDS011;14881;48.092;11.574;2023-11-19T12:10:51;0.40;;;0.30;;
27428;SDS011;14881;48.092;11.574;2023-11-19T12:13:20;0.50;;;0.40;;
27428;SDS011;14881;48.092;11.574;2023-11-19T12:18:36;2.50;;;0.50;;
27428;SDS011;14881;48.092;11.574;2023-11-19T12:21:06;0.40;;;0.40;;
27428;SDS011;14881;48.092;11.574;2023-11-19T12:23:35;1.58;;;0.50;;
27428;SDS011;14881;48.092;11.574;2023-11-19T12:26:15;0.40;;;0.40;;
27428;SDS011;14881;48.092;11.574;2023-11-19T12:28:57;3.40;;;0.47;;
27428;SDS011;14881;48.092;11.574;2023-11-19T12:31:24;0.40;;;0.40;;
27428;SDS011;14881;48.092;11.574;2023-11-19T12:33:50;0.73;;;0.70;;
27428;SDS011;14881;48.092;11.574;2023-11-19T12:36:17;0.40;;;0.40;;
27428;SDS011;14881;48.092;11.574;2023-11-19T12:38:44;0.95;;;0.95;;
27428;SDS011;14881;48.092;11.574;2023-11-19T12:41:12;0.60;;;0.60;;
27428;SDS011;14881;48.092;11.574;2023-11-19T12:43:47;1.27;;;0.45;;
27428;SDS011;14881;48.092;11.574;2023-11-19T12:46:21;0.80;;;0.52;;
27428;SDS011;14881;48.092;11.574;2023-11-19T12:48:48;0.40;;;0.40;;
27428;SDS011;14881;48.092;11.574;2023-11-19T12:51:16;1.27;;;0.70;;
27428;SDS011;14881;48.092;11.574;2023-11-19T12:53:49;1.75;;;0.60;;
27428;SDS011;14881;48.092;11.574;2023-11-19T12:56:18;0.60;;;0.60;;
27428;SDS011;14881;48.092;11.574;2023-11-19T12:58:45;0.70;;;0.50;;
27428;SDS011;14881;48.092;11.574;2023-11-19T13:01:15;2.30;;;1.00;;
27428;SDS011;14881;48.092;11.574;2023-11-19T13:03:43;1.45;;;0.60;;
27428;SDS011;14881;48.092;11.574;2023-11-19T13:06:10;1.63;;;0.70;;
27428;SDS011;14881;48.092;11.574;2023-11-19T13:08:38;0.45;;;0.45;;
27428;SDS011;14881;48.092;11.574;2023-11-19T13:11:05;1.38;;;0.80;;
27428;SDS011;14881;48.092;11.574;2023-11-19T13:13:33;0.85;;;0.57;;
27428;SDS011;14881;48.092;11.574;2023-11-19T13:16:22;0.50;;;0.45;;
27428;SDS011;14881;48.092;11.574;2023-11-19T13:18:50;0.50;;;0.50;;
27428;SDS011;14881;48.092;11.574;2023-11-19T13:21:17;0.60;;;0.60;;
27428;SDS011;14881;48.092;11.574;2023-11-19T13:23:43;1.33;;;0.55;;
27428;SDS011;14881;48.092;11.574;2023-11-19T13:26:10;1.38;;;0.68;;
27428;SDS011;14881;48.092;11.574;2023-11-19T13:28:36;0.77;;;0.60;;
27428;SDS011;14881;48.092;11.574;2023-11-19T13:31:04;0.68;;;0.40;;
27428;SDS011;14881;48.092;11.574;2023-11-19T13:33:35;0.50;;;0.50;;
27428;SDS011;14881;48.092;11.574;2023-11-19T13:36:02;0.60;;;0.60;;
27428;SDS011;14881;48.092;11.574;2023-11-19T13:38:33;1.48;;;0.70;;
27428;SDS011;14881;48.092;11.574;2023-11-19T13:40:59;1.20;;;0.95;;
27428;SDS011;14881;48.092;11.574;2023-11-19T13:43:26;1.67;;;0.90;;
27428;SDS011;14881;48.092;11.574;2023-11-19T13:45:53;0.98;;;0.70;;
27428;SDS011;14881;48.092;11.574;2023-11-19T13:48:20;1.30;;;1.20;;
27428;SDS011;14881;48.092;11.574;2023-11-19T13:50:46;1.65;;;0.82;;
27428;SDS011;14881;48.092;11.574;2023-11-19T13:53:14;1.40;;;0.93;;
27428;SDS011;14881;48.092;11.574;2023-11-19T13:55:41;0.60;;;0.60;;
27428;SDS011;14881;48.092;11.574;2023-11-19T13:58:07;0.75;;;0.73;;
27428;SDS011;14881;48.092;11.574;2023-11-19T14:00:34;0.82;;;0.75;;
27428;SDS011;14881;48.092;11.574;2023-11-19T14:03:00;1.13;;;0.90;;
27428;SDS011;14881;48.092;11.574;2023-11-19T14:05:27;1.15;;;0.70;;
27428;SDS011;14881;48.092;11.574;2023-11-19T14:07:56;1.95;;;0.80;;
27428;SDS011;14881;48.092;11.574;2023-11-19T14:10:24;0.75;;;0.70;;
27428;SDS011;14881;48.092;11.574;2023-11-19T14:12:50;0.82;;;0.77;;
27428;SDS011;14881;48.092;11.574;2023-11-19T14:15:17;0.70;;;0.70;;
27428;SDS011;14881;48.092;11.574;2023-11-19T14:17:43;1.27;;;0.90;;
27428;SDS011;14881;48.092;11.574;2023-11-19T14:20:10;1.05;;;1.05;;
27428;SDS011;14881;48.092;11.574;2023-11-19T14:27:51;1.85;;;0.75;;
27428;SDS011;14881;48.092;11.574;2023-11-19T14:30:18;0.80;;;0.55;;
27428;SDS011;14881;48.092;11.574;2023-11-19T14:32:44;1.23;;;0.80;;
27428;SDS011;14881;48.092;11.574;2023-11-19T14:35:13;0.70;;;0.60;;
27428;SDS011;14881;48.092;11.574;2023-11-19T14:37:39;0.60;;;0.60;;
27428;SDS011;14881;48.092;11.574;2023-11-19T14:40:06;0.70;;;0.60;;
27428;SDS011;14881;48.092;11.574;2023-11-19T14:42:36;2.67;;;0.90;;
27428;SDS011;14881;48.092;11.574;2023-11-19T14:45:03;0.60;;;0.60;;
27428;SDS011;14881;48.092;11.574;2023-11-19T14:47:30;2.25;;;0.70;;
27428;SDS011;14881;48.092;11.574;2023-11-19T14:49:57;0.77;;;0.70;;
27428;SDS011;14881;48.092;11.574;2023-11-19T14:52:23;1.08;;;0.85;;
27428;SDS011;14881;48.092;11.574;2023-11-19T14:54:49;1.10;;;0.80;;
27428;SDS011;14881;48.092;11.574;2023-11-19T14:57:17;1.08;;;0.98;;